Archival Weather

Chicago O'Hare International

Chicago, Illinois (KORD)

Report from: Thursday, August 24, 2023 7:51 AM CDT
Current time: Wednesday, April 24, 2024 1:40 PM CDT

Current weather – Weather history – Daily summaries
Weather forecast

Temperature28.3°C (82.9°F)
Heat index33.8°C (92.9°F)
Dew point25.6°C (78.1°F)
Winds 8 kts (4.1 m/s, 9.2 mph) West-Southwest (250°)
Visibility10 mi. (16.1 km)
Clouds Few clouds 3,000 ft. (914 m)
Few clouds 15,000 ft. (4,572 m)
Few clouds 25,000 ft. (7,620 m)
Altimeter29.87 in.Hg (1012 mB)
Relative humidity85 %
Density altitude2,049 ft. (625 m)
Sea-level pressure101.1 kPa (1011 mB, 29.85 in.Hg)
Remarks Automated weather observing station with precipitation discriminator
Flight conditions Visual Meteorological Conditions
Raw dataKORD 241251Z 25008KT 10SM FEW030 FEW150 FEW250 28/26 A2987 RMK AO2 SLP108 T02830256
An error has occurred. This application may no longer respond until reloaded. Reload 🗙